sensor_id;sensor_type;location;lat;lon;timestamp;pressure;altitude;pressure_sealevel;temperature;humidity
75065;BME280;63646;49.110;9.140;2022-10-16T00:01:09;99215.56;;;22.95;60.24
75065;BME280;63646;49.110;9.140;2022-10-16T00:03:37;99227.06;;;22.96;60.50
75065;BME280;63646;49.110;9.140;2022-10-16T00:06:03;99218.06;;;22.97;60.42
75065;BME280;63646;49.110;9.140;2022-10-16T00:08:29;99213.06;;;22.94;60.50
75065;BME280;63646;49.110;9.140;2022-10-16T00:11:10;99214.75;;;22.95;60.28
75065;BME280;63646;49.110;9.140;2022-10-16T00:13:36;99204.09;;;22.95;60.29
75065;BME280;63646;49.110;9.140;2022-10-16T00:16:03;99196.91;;;22.95;60.28
75065;BME280;63646;49.110;9.140;2022-10-16T00:18:29;99197.06;;;22.94;60.49
75065;BME280;63646;49.110;9.140;2022-10-16T00:20:54;99194.56;;;22.92;60.30
75065;BME280;63646;49.110;9.140;2022-10-16T00:23:20;99203.25;;;22.94;60.20
75065;BME280;63646;49.110;9.140;2022-10-16T00:25:59;99200.59;;;22.94;60.27
75065;BME280;63646;49.110;9.140;2022-10-16T00:28:24;99211.38;;;22.93;60.38
75065;BME280;63646;49.110;9.140;2022-10-16T00:30:50;99209.72;;;22.92;60.22
75065;BME280;63646;49.110;9.140;2022-10-16T00:33:15;99216.72;;;22.93;60.13
75065;BME280;63646;49.110;9.140;2022-10-16T00:35:40;99220.38;;;22.92;60.32
75065;BME280;63646;49.110;9.140;2022-10-16T00:38:06;99215.88;;;22.92;59.94
75065;BME280;63646;49.110;9.140;2022-10-16T00:40:31;99227.50;;;22.91;60.08
75065;BME280;63646;49.110;9.140;2022-10-16T00:42:57;99228.38;;;22.92;60.12
75065;BME280;63646;49.110;9.140;2022-10-16T00:45:22;99225.72;;;22.92;59.96
75065;BME280;63646;49.110;9.140;2022-10-16T00:47:48;99219.66;;;22.89;60.14
75065;BME280;63646;49.110;9.140;2022-10-16T00:50:24;99216.03;;;22.90;59.96
75065;BME280;63646;49.110;9.140;2022-10-16T00:52:52;99218.69;;;22.90;59.97
75065;BME280;63646;49.110;9.140;2022-10-16T00:55:18;99221.50;;;22.89;60.11
75065;BME280;63646;49.110;9.140;2022-10-16T00:57:44;99224.03;;;22.90;60.11
75065;BME280;63646;49.110;9.140;2022-10-16T01:00:12;99223.31;;;22.88;59.94
75065;BME280;63646;49.110;9.140;2022-10-16T01:02:38;99220.66;;;22.88;59.95
75065;BME280;63646;49.110;9.140;2022-10-16T01:05:05;99219.00;;;22.87;59.84
75065;BME280;63646;49.110;9.140;2022-10-16T01:07:39;99223.31;;;22.88;60.04
75065;BME280;63646;49.110;9.140;2022-10-16T01:12:50;99225.00;;;22.89;60.17
75065;BME280;63646;49.110;9.140;2022-10-16T01:20:50;99211.00;;;22.87;60.18
75065;BME280;63646;49.110;9.140;2022-10-16T01:26:24;99191.84;;;22.84;59.98
75065;BME280;63646;49.110;9.140;2022-10-16T01:29:03;99205.00;;;22.85;60.16
75065;BME280;63646;49.110;9.140;2022-10-16T01:31:34;99212.97;;;22.85;60.17
75065;BME280;63646;49.110;9.140;2022-10-16T01:36:36;99212.31;;;22.83;60.11
75065;BME280;63646;49.110;9.140;2022-10-16T01:39:02;99215.13;;;22.82;59.98
75065;BME280;63646;49.110;9.140;2022-10-16T01:41:32;99220.47;;;22.82;60.11
75065;BME280;63646;49.110;9.140;2022-10-16T01:44:08;99230.97;;;22.83;60.07
75065;BME280;63646;49.110;9.140;2022-10-16T01:46:38;99238.13;;;22.83;60.00
75065;BME280;63646;49.110;9.140;2022-10-16T01:49:06;99225.78;;;22.82;59.94
75065;BME280;63646;49.110;9.140;2022-10-16T01:51:34;99230.16;;;22.83;59.91
75065;BME280;63646;49.110;9.140;2022-10-16T01:54:02;99226.63;;;22.82;59.88
75065;BME280;63646;49.110;9.140;2022-10-16T01:56:28;99224.13;;;22.81;59.91
75065;BME280;63646;49.110;9.140;2022-10-16T01:59:01;99223.94;;;22.82;59.98
75065;BME280;63646;49.110;9.140;2022-10-16T02:01:30;99227.63;;;22.81;60.08
75065;BME280;63646;49.110;9.140;2022-10-16T02:04:01;99219.78;;;22.80;59.75
75065;BME280;63646;49.110;9.140;2022-10-16T02:06:28;99214.31;;;22.81;60.03
75065;BME280;63646;49.110;9.140;2022-10-16T02:08:54;99217.13;;;22.80;60.03
75065;BME280;63646;49.110;9.140;2022-10-16T02:11:20;99218.78;;;22.81;60.21
75065;BME280;63646;49.110;9.140;2022-10-16T02:13:48;99225.78;;;22.82;60.09
75065;BME280;63646;49.110;9.140;2022-10-16T02:16:16;99228.63;;;22.80;60.17
75065;BME280;63646;49.110;9.140;2022-10-16T02:18:42;99232.94;;;22.81;59.77
75065;BME280;63646;49.110;9.140;2022-10-16T02:21:19;99226.78;;;22.81;60.02
75065;BME280;63646;49.110;9.140;2022-10-16T02:29:30;99227.78;;;22.80;59.94
75065;BME280;63646;49.110;9.140;2022-10-16T02:32:02;99226.09;;;22.79;59.74
75065;BME280;63646;49.110;9.140;2022-10-16T02:34:31;99221.63;;;22.79;59.99
75065;BME280;63646;49.110;9.140;2022-10-16T02:36:58;99220.75;;;22.79;59.92
75065;BME280;63646;49.110;9.140;2022-10-16T02:39:27;99225.25;;;22.78;60.32
75065;BME280;63646;49.110;9.140;2022-10-16T02:41:53;99226.09;;;22.79;59.88
75065;BME280;63646;49.110;9.140;2022-10-16T02:44:18;99234.25;;;22.77;60.08
75065;BME280;63646;49.110;9.140;2022-10-16T02:46:44;99230.75;;;22.77;60.05
75065;BME280;63646;49.110;9.140;2022-10-16T02:49:09;99225.56;;;22.75;59.72
75065;BME280;63646;49.110;9.140;2022-10-16T02:51:34;99226.44;;;22.76;59.87
75065;BME280;63646;49.110;9.140;2022-10-16T02:54:02;99235.25;;;22.76;59.82
75065;BME280;63646;49.110;9.140;2022-10-16T02:56:27;99236.22;;;22.75;60.16
75065;BME280;63646;49.110;9.140;2022-10-16T02:58:52;99237.94;;;22.76;59.68
75065;BME280;63646;49.110;9.140;2022-10-16T03:01:18;99238.22;;;22.73;59.77
75065;BME280;63646;49.110;9.140;2022-10-16T03:03:43;99242.56;;;22.74;59.75
75065;BME280;63646;49.110;9.140;2022-10-16T03:06:08;99232.72;;;22.75;59.93
75065;BME280;63646;49.110;9.140;2022-10-16T03:08:34;99237.94;;;22.76;59.96
75065;BME280;63646;49.110;9.140;2022-10-16T03:10:59;99231.91;;;22.74;59.70
75065;BME280;63646;49.110;9.140;2022-10-16T03:13:24;99236.22;;;22.75;59.83
75065;BME280;63646;49.110;9.140;2022-10-16T03:15:50;99233.56;;;22.75;60.01
75065;BME280;63646;49.110;9.140;2022-10-16T03:18:15;99229.25;;;22.74;59.79
75065;BME280;63646;49.110;9.140;2022-10-16T03:20:42;99236.22;;;22.75;59.79
75065;BME280;63646;49.110;9.140;2022-10-16T03:23:08;99243.38;;;22.75;59.70
75065;BME280;63646;49.110;9.140;2022-10-16T03:25:33;99241.56;;;22.75;59.96
75065;BME280;63646;49.110;9.140;2022-10-16T03:27:59;99239.06;;;22.74;59.57
75065;BME280;63646;49.110;9.140;2022-10-16T03:30:24;99238.22;;;22.73;59.70
75065;BME280;63646;49.110;9.140;2022-10-16T03:32:49;99243.56;;;22.73;59.54
75065;BME280;63646;49.110;9.140;2022-10-16T03:35:19;99251.56;;;22.73;59.68
75065;BME280;63646;49.110;9.140;2022-10-16T03:37:44;99248.88;;;22.73;59.66
75065;BME280;63646;49.110;9.140;2022-10-16T03:40:10;99243.69;;;22.72;59.51
75065;BME280;63646;49.110;9.140;2022-10-16T03:42:35;99240.19;;;22.71;59.66
75065;BME280;63646;49.110;9.140;2022-10-16T03:45:00;99248.88;;;22.73;59.71
75065;BME280;63646;49.110;9.140;2022-10-16T03:47:26;99246.22;;;22.73;59.74
75065;BME280;63646;49.110;9.140;2022-10-16T03:49:51;99248.88;;;22.73;59.81
75065;BME280;63646;49.110;9.140;2022-10-16T03:52:17;99243.56;;;22.73;59.93
75065;BME280;63646;49.110;9.140;2022-10-16T03:54:43;99248.19;;;22.71;59.83
75065;BME280;63646;49.110;9.140;2022-10-16T03:57:08;99243.88;;;22.70;59.50
75065;BME280;63646;49.110;9.140;2022-10-16T03:59:33;99242.88;;;22.71;59.76
75065;BME280;63646;49.110;9.140;2022-10-16T04:01:59;99241.03;;;22.72;59.74
75065;BME280;63646;49.110;9.140;2022-10-16T04:04:24;99235.88;;;22.70;59.78
75065;BME280;63646;49.110;9.140;2022-10-16T04:06:50;99240.19;;;22.71;59.97
75065;BME280;63646;49.110;9.140;2022-10-16T04:09:15;99242.03;;;22.71;59.67
75065;BME280;63646;49.110;9.140;2022-10-16T04:11:41;99242.88;;;22.71;59.60
75065;BME280;63646;49.110;9.140;2022-10-16T04:14:06;99242.22;;;22.69;59.58
75065;BME280;63646;49.110;9.140;2022-10-16T04:16:31;99251.84;;;22.70;59.57
75065;BME280;63646;49.110;9.140;2022-10-16T04:18:56;99258.84;;;22.71;59.99
75065;BME280;63646;49.110;9.140;2022-10-16T04:21:22;99256.19;;;22.71;59.61
75065;BME280;63646;49.110;9.140;2022-10-16T04:23:47;99257.34;;;22.69;59.44
75065;BME280;63646;49.110;9.140;2022-10-16T04:26:13;99261.38;;;22.73;59.77
75065;BME280;63646;49.110;9.140;2022-10-16T04:28:38;99260.69;;;22.71;59.74
75065;BME280;63646;49.110;9.140;2022-10-16T04:31:05;99261.50;;;22.71;59.79
75065;BME280;63646;49.110;9.140;2022-10-16T04:33:30;99263.50;;;22.69;59.68
75065;BME280;63646;49.110;9.140;2022-10-16T04:35:59;99274.81;;;22.71;59.48
75065;BME280;63646;49.110;9.140;2022-10-16T04:38:25;99275.84;;;22.70;59.83
75065;BME280;63646;49.110;9.140;2022-10-16T04:40:51;99277.50;;;22.71;59.82
75065;BME280;63646;49.110;9.140;2022-10-16T04:43:17;99275.84;;;22.70;59.47
75065;BME280;63646;49.110;9.140;2022-10-16T04:45:43;99281.16;;;22.70;59.87
75065;BME280;63646;49.110;9.140;2022-10-16T04:48:08;99282.00;;;22.71;59.60
75065;BME280;63646;49.110;9.140;2022-10-16T04:50:34;99282.00;;;22.71;59.47
75065;BME280;63646;49.110;9.140;2022-10-16T04:52:59;99288.16;;;22.71;59.62
75065;BME280;63646;49.110;9.140;2022-10-16T04:55:25;99290.81;;;22.71;59.39
75065;BME280;63646;49.110;9.140;2022-10-16T04:57:50;99289.97;;;22.71;59.59
75065;BME280;63646;49.110;9.140;2022-10-16T05:00:15;99294.31;;;22.72;59.43
75065;BME280;63646;49.110;9.140;2022-10-16T05:02:41;99298.13;;;22.69;59.35
75065;BME280;63646;49.110;9.140;2022-10-16T05:05:06;99292.66;;;22.71;59.60
75065;BME280;63646;49.110;9.140;2022-10-16T05:07:32;99296.31;;;22.70;59.83
75065;BME280;63646;49.110;9.140;2022-10-16T05:09:57;99302.47;;;22.70;60.12
75065;BME280;63646;49.110;9.140;2022-10-16T05:12:23;99309.16;;;22.74;60.09
75065;BME280;63646;49.110;9.140;2022-10-16T05:14:48;99305.66;;;22.74;60.17
75065;BME280;63646;49.110;9.140;2022-10-16T05:17:13;99303.16;;;22.72;60.19
75065;BME280;63646;49.110;9.140;2022-10-16T05:19:39;99296.13;;;22.71;60.48
75065;BME280;63646;49.110;9.140;2022-10-16T05:22:04;99290.81;;;22.71;59.95
75065;BME280;63646;49.110;9.140;2022-10-16T05:24:30;99289.69;;;22.74;60.23
75065;BME280;63646;49.110;9.140;2022-10-16T05:26:55;99294.00;;;22.75;59.91
75065;BME280;63646;49.110;9.140;2022-10-16T05:29:21;99286.19;;;22.73;60.27
75065;BME280;63646;49.110;9.140;2022-10-16T05:31:46;99284.50;;;22.72;60.06
75065;BME280;63646;49.110;9.140;2022-10-16T05:34:14;99283.81;;;22.70;59.92
75065;BME280;63646;49.110;9.140;2022-10-16T05:36:39;99292.50;;;22.72;60.04
75065;BME280;63646;49.110;9.140;2022-10-16T05:39:05;99280.16;;;22.71;59.92
75065;BME280;63646;49.110;9.140;2022-10-16T05:41:30;99286.19;;;22.73;59.82
75065;BME280;63646;49.110;9.140;2022-10-16T05:43:56;99289.84;;;22.72;59.95
75065;BME280;63646;49.110;9.140;2022-10-16T05:46:22;99285.19;;;22.74;59.92
75065;BME280;63646;49.110;9.140;2022-10-16T05:48:47;99294.69;;;22.77;59.78
75065;BME280;63646;49.110;9.140;2022-10-16T05:51:13;99290.19;;;22.77;59.94
75065;BME280;63646;49.110;9.140;2022-10-16T05:53:40;99296.22;;;22.79;59.69
75065;BME280;63646;49.110;9.140;2022-10-16T05:56:06;99310.19;;;22.81;60.01
75065;BME280;63646;49.110;9.140;2022-10-16T05:58:37;99302.91;;;22.83;60.37
75065;BME280;63646;49.110;9.140;2022-10-16T06:01:06;99321.06;;;22.88;61.41
75065;BME280;63646;49.110;9.140;2022-10-16T06:03:32;99327.25;;;22.88;61.31
75065;BME280;63646;49.110;9.140;2022-10-16T06:05:58;99313.91;;;22.88;61.16
75065;BME280;63646;49.110;9.140;2022-10-16T06:08:23;99321.63;;;22.92;61.03
75065;BME280;63646;49.110;9.140;2022-10-16T06:11:00;99317.28;;;22.90;60.76
75065;BME280;63646;49.110;9.140;2022-10-16T06:13:25;99316.97;;;22.94;60.93
75065;BME280;63646;49.110;9.140;2022-10-16T06:15:50;99321.31;;;22.95;61.10
75065;BME280;63646;49.110;9.140;2022-10-16T06:18:16;99320.50;;;22.94;60.39
75065;BME280;63646;49.110;9.140;2022-10-16T06:20:41;99319.50;;;22.95;60.81
75065;BME280;63646;49.110;9.140;2022-10-16T06:23:06;99340.63;;;22.97;60.47
75065;BME280;63646;49.110;9.140;2022-10-16T06:25:32;99324.66;;;22.97;60.52
75065;BME280;63646;49.110;9.140;2022-10-16T06:27:57;99311.31;;;22.97;60.40
75065;BME280;63646;49.110;9.140;2022-10-16T06:30:23;99312.31;;;22.96;60.37
75065;BME280;63646;49.110;9.140;2022-10-16T06:32:48;99329.97;;;22.97;60.51
75065;BME280;63646;49.110;9.140;2022-10-16T06:35:13;99323.81;;;22.96;60.83
75065;BME280;63646;49.110;9.140;2022-10-16T06:37:39;99319.19;;;22.98;60.67
75065;BME280;63646;49.110;9.140;2022-10-16T06:40:04;99328.00;;;22.99;60.64
75065;BME280;63646;49.110;9.140;2022-10-16T06:42:30;99337.00;;;22.98;60.78
75065;BME280;63646;49.110;9.140;2022-10-16T06:44:56;99347.66;;;22.98;60.60
75065;BME280;63646;49.110;9.140;2022-10-16T06:47:21;99368.97;;;22.98;60.71
75065;BME280;63646;49.110;9.140;2022-10-16T06:49:46;99375.28;;;22.97;61.29
75065;BME280;63646;49.110;9.140;2022-10-16T06:52:12;99362.97;;;22.96;61.01
75065;BME280;63646;49.110;9.140;2022-10-16T06:54:37;99370.78;;;22.97;61.07
75065;BME280;63646;49.110;9.140;2022-10-16T06:57:02;99375.97;;;22.99;61.20
75065;BME280;63646;49.110;9.140;2022-10-16T06:59:28;99377.94;;;22.97;61.07
75065;BME280;63646;49.110;9.140;2022-10-16T07:01:53;99384.28;;;22.96;61.27
75065;BME280;63646;49.110;9.140;2022-10-16T07:04:18;99383.56;;;22.94;61.20
75065;BME280;63646;49.110;9.140;2022-10-16T07:06:44;99390.91;;;22.92;61.27
75065;BME280;63646;49.110;9.140;2022-10-16T07:09:10;99385.84;;;22.88;60.40
75065;BME280;63646;49.110;9.140;2022-10-16T07:11:37;99394.97;;;22.86;60.55
75065;BME280;63646;49.110;9.140;2022-10-16T07:14:03;99393.47;;;22.83;59.79
75065;BME280;63646;49.110;9.140;2022-10-16T07:16:31;99403.59;;;22.80;59.52
75065;BME280;63646;49.110;9.140;2022-10-16T07:18:58;99392.44;;;22.76;58.79
75065;BME280;63646;49.110;9.140;2022-10-16T07:21:28;99395.22;;;22.75;58.02
75065;BME280;63646;49.110;9.140;2022-10-16T07:23:58;99392.72;;;22.73;57.96
75065;BME280;63646;49.110;9.140;2022-10-16T07:26:26;99396.38;;;22.72;58.34
75065;BME280;63646;49.110;9.140;2022-10-16T07:28:52;99396.38;;;22.72;57.88
75065;BME280;63646;49.110;9.140;2022-10-16T07:31:19;99400.56;;;22.75;57.81
75065;BME280;63646;49.110;9.140;2022-10-16T07:33:45;99399.59;;;22.76;58.09
75065;BME280;63646;49.110;9.140;2022-10-16T07:36:12;99402.09;;;22.77;57.79
75065;BME280;63646;49.110;9.140;2022-10-16T07:38:38;99398.88;;;22.74;57.73
75065;BME280;63646;49.110;9.140;2022-10-16T07:41:06;99396.06;;;22.75;58.12
75065;BME280;63646;49.110;9.140;2022-10-16T07:43:32;99404.03;;;22.75;58.04
75065;BME280;63646;49.110;9.140;2022-10-16T07:45:58;99412.91;;;22.76;58.13
75065;BME280;63646;49.110;9.140;2022-10-16T07:48:27;99412.03;;;22.75;58.52
75065;BME280;63646;49.110;9.140;2022-10-16T07:51:00;99416.53;;;22.75;58.40
75065;BME280;63646;49.110;9.140;2022-10-16T07:53:26;99422.69;;;22.75;58.25
75065;BME280;63646;49.110;9.140;2022-10-16T07:55:51;99424.53;;;22.75;58.46
75065;BME280;63646;49.110;9.140;2022-10-16T07:58:17;99421.03;;;22.74;58.26
75065;BME280;63646;49.110;9.140;2022-10-16T08:00:42;99423.69;;;22.74;58.25
75065;BME280;63646;49.110;9.140;2022-10-16T08:03:08;99428.88;;;22.76;58.32
75065;BME280;63646;49.110;9.140;2022-10-16T08:05:33;99426.34;;;22.74;58.50
75065;BME280;63646;49.110;9.140;2022-10-16T08:08:00;99428.03;;;22.75;58.32
75065;BME280;63646;49.110;9.140;2022-10-16T08:10:26;99438.84;;;22.74;58.28
75065;BME280;63646;49.110;9.140;2022-10-16T08:12:52;99427.19;;;22.75;58.33
75065;BME280;63646;49.110;9.140;2022-10-16T08:15:18;99441.22;;;22.77;58.14
75065;BME280;63646;49.110;9.140;2022-10-16T08:17:44;99441.22;;;22.77;58.47
75065;BME280;63646;49.110;9.140;2022-10-16T08:20:10;99449.88;;;22.79;58.30
75065;BME280;63646;49.110;9.140;2022-10-16T08:22:35;99454.34;;;22.78;58.40
75065;BME280;63646;49.110;9.140;2022-10-16T08:25:01;99453.53;;;22.78;58.28
75065;BME280;63646;49.110;9.140;2022-10-16T08:27:31;99456.88;;;22.80;58.52
75065;BME280;63646;49.110;9.140;2022-10-16T08:29:57;99456.88;;;22.80;58.33
75065;BME280;63646;49.110;9.140;2022-10-16T08:32:22;99469.03;;;22.82;58.22
75065;BME280;63646;49.110;9.140;2022-10-16T08:34:48;99452.41;;;22.80;58.28
75065;BME280;63646;49.110;9.140;2022-10-16T08:37:13;99457.44;;;22.83;58.19
75065;BME280;63646;49.110;9.140;2022-10-16T08:39:39;99454.06;;;22.81;58.00
75065;BME280;63646;49.110;9.140;2022-10-16T08:44:54;99468.09;;;22.83;58.29
75065;BME280;63646;49.110;9.140;2022-10-16T08:47:26;99461.91;;;22.83;58.78
75065;BME280;63646;49.110;9.140;2022-10-16T08:50:12;99465.56;;;22.82;58.42
75065;BME280;63646;49.110;9.140;2022-10-16T08:52:43;99461.91;;;22.83;58.43
75065;BME280;63646;49.110;9.140;2022-10-16T08:58:00;99465.25;;;22.85;58.54
75065;BME280;63646;49.110;9.140;2022-10-16T09:00:26;99471.41;;;22.85;58.57
75065;BME280;63646;49.110;9.140;2022-10-16T09:03:04;99462.75;;;22.83;58.72
75065;BME280;63646;49.110;9.140;2022-10-16T09:06:06;99475.91;;;22.85;58.59
75065;BME280;63646;49.110;9.140;2022-10-16T09:11:49;99475.06;;;22.84;58.73
75065;BME280;63646;49.110;9.140;2022-10-16T09:14:39;99478.75;;;22.83;58.43
75065;BME280;63646;49.110;9.140;2022-10-16T09:23:10;99489.22;;;22.85;58.49
75065;BME280;63646;49.110;9.140;2022-10-16T09:25:39;99500.72;;;22.85;58.52
75065;BME280;63646;49.110;9.140;2022-10-16T09:28:05;99512.38;;;22.84;58.41
75065;BME280;63646;49.110;9.140;2022-10-16T09:30:30;99506.22;;;22.84;58.33
75065;BME280;63646;49.110;9.140;2022-10-16T09:32:57;99508.72;;;22.85;58.43
75065;BME280;63646;49.110;9.140;2022-10-16T09:35:30;99513.22;;;22.85;58.38
75065;BME280;63646;49.110;9.140;2022-10-16T09:37:56;99519.25;;;22.87;58.81
75065;BME280;63646;49.110;9.140;2022-10-16T09:40:29;99522.56;;;22.89;58.39
75065;BME280;63646;49.110;9.140;2022-10-16T09:46:00;99533.09;;;22.90;58.30
75065;BME280;63646;49.110;9.140;2022-10-16T09:48:47;99527.06;;;22.88;58.39
75065;BME280;63646;49.110;9.140;2022-10-16T09:51:21;99531.56;;;22.88;58.61
75065;BME280;63646;49.110;9.140;2022-10-16T09:53:47;99534.91;;;22.90;58.28
75065;BME280;63646;49.110;9.140;2022-10-16T09:56:34;99530.56;;;22.89;58.63
75065;BME280;63646;49.110;9.140;2022-10-16T09:59:08;99531.41;;;22.89;58.52
75065;BME280;63646;49.110;9.140;2022-10-16T10:01:41;99529.72;;;22.88;58.60
75065;BME280;63646;49.110;9.140;2022-10-16T10:04:07;99534.06;;;22.89;58.42
75065;BME280;63646;49.110;9.140;2022-10-16T10:06:34;99531.41;;;22.89;58.47
75065;BME280;63646;49.110;9.140;2022-10-16T10:14:36;99544.59;;;22.91;58.67
75065;BME280;63646;49.110;9.140;2022-10-16T10:19:47;99542.78;;;22.92;58.68
75065;BME280;63646;49.110;9.140;2022-10-16T10:30:25;99543.63;;;22.92;58.52
75065;BME280;63646;49.110;9.140;2022-10-16T10:36:07;99544.59;;;22.91;58.76
75065;BME280;63646;49.110;9.140;2022-10-16T10:55:16;99539.03;;;22.84;57.37
75065;BME280;63646;49.110;9.140;2022-10-16T10:58:05;99543.81;;;22.81;57.82
75065;BME280;63646;49.110;9.140;2022-10-16T11:00:57;99547.75;;;22.77;57.15
75065;BME280;63646;49.110;9.140;2022-10-16T11:06:22;99550.78;;;22.64;57.56
75065;BME280;63646;49.110;9.140;2022-10-16T11:09:09;99536.81;;;22.52;57.14
75065;BME280;63646;49.110;9.140;2022-10-16T11:11:42;99553.34;;;22.56;57.57
75065;BME280;63646;49.110;9.140;2022-10-16T11:19:35;99535.41;;;22.58;58.04
75065;BME280;63646;49.110;9.140;2022-10-16T11:24:58;99534.13;;;22.62;58.38
75065;BME280;63646;49.110;9.140;2022-10-16T11:27:49;99525.88;;;22.55;58.19
75065;BME280;63646;49.110;9.140;2022-10-16T11:30:25;99534.88;;;22.54;57.67
75065;BME280;63646;49.110;9.140;2022-10-16T11:35:54;99524.13;;;22.64;57.22
75065;BME280;63646;49.110;9.140;2022-10-16T11:40:58;99520.50;;;22.65;57.63
75065;BME280;63646;49.110;9.140;2022-10-16T11:43:36;99520.19;;;22.68;57.47
75065;BME280;63646;49.110;9.140;2022-10-16T11:46:16;99529.03;;;22.69;56.94
75065;BME280;63646;49.110;9.140;2022-10-16T11:49:21;99539.53;;;22.70;57.06
75065;BME280;63646;49.110;9.140;2022-10-16T11:52:30;99538.53;;;22.71;55.93
75065;BME280;63646;49.110;9.140;2022-10-16T11:57:13;99533.22;;;22.71;56.46
75065;BME280;63646;49.110;9.140;2022-10-16T12:04:56;99532.53;;;22.69;56.02
75065;BME280;63646;49.110;9.140;2022-10-16T12:07:35;99538.53;;;22.71;56.17
75065;BME280;63646;49.110;9.140;2022-10-16T12:10:20;99529.56;;;22.72;56.13
75065;BME280;63646;49.110;9.140;2022-10-16T12:12:46;99526.75;;;22.74;56.10
75065;BME280;63646;49.110;9.140;2022-10-16T12:15:19;99530.94;;;22.76;55.85
75065;BME280;63646;49.110;9.140;2022-10-16T12:17:44;99537.94;;;22.77;55.81
75065;BME280;63646;49.110;9.140;2022-10-16T12:22:49;99522.78;;;22.78;55.73
75065;BME280;63646;49.110;9.140;2022-10-16T12:30:57;99531.69;;;22.86;55.52
75065;BME280;63646;49.110;9.140;2022-10-16T12:35:51;99526.38;;;22.86;55.36
75065;BME280;63646;49.110;9.140;2022-10-16T12:38:18;99525.53;;;22.86;55.34
75065;BME280;63646;49.110;9.140;2022-10-16T12:40:46;99524.03;;;22.83;55.82
75065;BME280;63646;49.110;9.140;2022-10-16T12:43:26;99524.31;;;22.80;55.93
75065;BME280;63646;49.110;9.140;2022-10-16T12:48:30;99530.66;;;22.79;55.78
75065;BME280;63646;49.110;9.140;2022-10-16T12:50:56;99527.00;;;22.80;55.69
75065;BME280;63646;49.110;9.140;2022-10-16T12:53:24;99524.16;;;22.82;55.95
75065;BME280;63646;49.110;9.140;2022-10-16T12:58:49;99521.66;;;22.80;55.72
75065;BME280;63646;49.110;9.140;2022-10-16T13:01:18;99516.34;;;22.80;55.49
75065;BME280;63646;49.110;9.140;2022-10-16T13:10:15;99522.34;;;22.82;55.42
75065;BME280;63646;49.110;9.140;2022-10-16T13:15:29;99527.38;;;22.85;55.96
75065;BME280;63646;49.110;9.140;2022-10-16T13:26:34;99535.88;;;22.99;56.22
75065;BME280;63646;49.110;9.140;2022-10-16T13:29:02;99537.22;;;23.03;56.46
75065;BME280;63646;49.110;9.140;2022-10-16T13:31:28;99538.59;;;23.07;56.36
75065;BME280;63646;49.110;9.140;2022-10-16T13:33:56;99536.47;;;23.10;56.34
75065;BME280;63646;49.110;9.140;2022-10-16T13:36:26;99537.47;;;23.09;56.60
75065;BME280;63646;49.110;9.140;2022-10-16T13:39:24;99546.00;;;23.13;56.62
75065;BME280;63646;49.110;9.140;2022-10-16T13:42:13;99556.50;;;23.14;56.71
75065;BME280;63646;49.110;9.140;2022-10-16T13:44:44;99553.00;;;23.14;56.18
75065;BME280;63646;49.110;9.140;2022-10-16T13:47:22;99549.19;;;23.17;56.52
75065;BME280;63646;49.110;9.140;2022-10-16T13:50:06;99548.38;;;23.16;56.87
75065;BME280;63646;49.110;9.140;2022-10-16T13:52:35;99555.19;;;23.19;57.00
75065;BME280;63646;49.110;9.140;2022-10-16T13:55:02;99556.72;;;23.21;57.10
75065;BME280;63646;49.110;9.140;2022-10-16T13:57:27;99552.06;;;23.23;57.14
75065;BME280;63646;49.110;9.140;2022-10-16T13:59:53;99550.81;;;23.27;57.21
75065;BME280;63646;49.110;9.140;2022-10-16T14:04:50;99540.19;;;23.35;57.13
75065;BME280;63646;49.110;9.140;2022-10-16T14:07:24;99546.19;;;23.37;57.26
75065;BME280;63646;49.110;9.140;2022-10-16T14:09:51;99548.72;;;23.39;57.28
75065;BME280;63646;49.110;9.140;2022-10-16T14:12:17;99546.19;;;23.37;57.50
75065;BME280;63646;49.110;9.140;2022-10-16T14:14:47;99549.56;;;23.39;57.60
75065;BME280;63646;49.110;9.140;2022-10-16T14:17:32;99558.22;;;23.42;57.38
75065;BME280;63646;49.110;9.140;2022-10-16T14:20:02;99551.22;;;23.41;57.50
75065;BME280;63646;49.110;9.140;2022-10-16T14:24:53;99552.22;;;23.39;56.59
75065;BME280;63646;49.110;9.140;2022-10-16T14:30:26;99552.34;;;23.38;56.34
75065;BME280;63646;49.110;9.140;2022-10-16T14:33:00;99557.84;;;23.36;56.16
75065;BME280;63646;49.110;9.140;2022-10-16T14:35:30;99551.00;;;23.34;55.93
75065;BME280;63646;49.110;9.140;2022-10-16T14:37:56;99551.31;;;23.31;55.96
75065;BME280;63646;49.110;9.140;2022-10-16T14:40:25;99547.97;;;23.29;56.21
75065;BME280;63646;49.110;9.140;2022-10-16T14:42:51;99545.47;;;23.27;56.24
75065;BME280;63646;49.110;9.140;2022-10-16T14:45:28;99550.81;;;23.27;56.51
75065;BME280;63646;49.110;9.140;2022-10-16T14:47:57;99549.09;;;23.26;56.54
75065;BME280;63646;49.110;9.140;2022-10-16T14:50:23;99553.91;;;23.23;56.43
75065;BME280;63646;49.110;9.140;2022-10-16T14:52:49;99551.41;;;23.21;56.86
75065;BME280;63646;49.110;9.140;2022-10-16T14:55:15;99559.41;;;23.21;56.82
75065;BME280;63646;49.110;9.140;2022-10-16T14:57:40;99551.53;;;23.20;57.11
75065;BME280;63646;49.110;9.140;2022-10-16T15:00:22;99553.38;;;23.19;57.33
75065;BME280;63646;49.110;9.140;2022-10-16T15:02:49;99551.03;;;23.16;57.24
75065;BME280;63646;49.110;9.140;2022-10-16T15:05:22;99544.84;;;23.15;57.51
75065;BME280;63646;49.110;9.140;2022-10-16T15:07:49;99548.03;;;23.19;57.29
75065;BME280;63646;49.110;9.140;2022-10-16T15:10:16;99553.06;;;23.22;57.28
75065;BME280;63646;49.110;9.140;2022-10-16T15:12:42;99543.41;;;23.21;57.20
75065;BME280;63646;49.110;9.140;2022-10-16T15:17:51;99551.69;;;23.18;56.95
75065;BME280;63646;49.110;9.140;2022-10-16T15:20:25;99549.81;;;23.10;56.77
75065;BME280;63646;49.110;9.140;2022-10-16T15:22:51;99543.94;;;23.07;57.32
75065;BME280;63646;49.110;9.140;2022-10-16T15:27:55;99544.31;;;22.94;57.49
75065;BME280;63646;49.110;9.140;2022-10-16T15:30:20;99554.28;;;22.92;57.80
75065;BME280;63646;49.110;9.140;2022-10-16T15:32:46;99539.13;;;22.93;58.29